Flight Track Log - Related Links

Times and Time Zones

All times are in EDT time to prevent confusion due to time zone crossing. See the ASQ5025 flight status page for this flight to view local times or setup timezone preferences in your user account.

Time Position Orientation Groundspeed Altitude Reporting Facility
EDT Latitude Longitude Course Direction KTS MPH feet Rate Location/Type
Fri 09:37:47 AM 40.8000 -73.8500 30° Northeast 162 186 1,800  Level New York TRACON
Fri 09:39:40 AM 40.8942 -73.7553 37° Northeast 244 281 6,300 2,462 Climbing Boston Center
Fri 09:40:40 AM 40.9472 -73.6822 46° Northeast 265 305 8,900 2,750 Climbing Boston Center
Fri 09:41:40 AM 41.0292 -73.6178 31° Northeast 289 333 11,800 2,150 Climbing Boston Center
Fri 09:42:40 AM 41.1028 -73.5667 28° Northeast 322 371 13,200 1,500 Climbing Boston Center
Fri 09:43:00 AM 41.1103 -73.6013 30° Northeast  Level FlightAware Approximate
Fri 09:43:40 AM 41.2097 -73.4997 25° Northeast 362 417 14,800  Level Boston Center
Fri 09:44:40 AM 41.2997 -73.4347 28° Northeast 388 447 16,200 1,500 Climbing Boston Center
Fri 09:45:40 AM 41.4131 -73.3589 27° Northeast 407 468 17,800 1,300 Climbing Boston Center
Fri 09:46:40 AM 41.5075 -73.2800 32° Northeast 425 489 18,800 1,300 Climbing Boston Center
Fri 09:47:40 AM 41.6042 -73.1564 44° Northeast 432 497 20,400 1,500 Climbing Boston Center
Fri 09:48:40 AM 41.7086 -73.1269 12° North 412 474 21,800 1,500 Climbing Boston Center
Fri 09:49:40 AM 41.8397 -73.1283 360° North 418 481 23,400 1,500 Climbing Boston Center
Fri 09:50:40 AM 41.9439 -73.1267 North 417 480 24,800 1,550 Climbing Boston Center
Fri 09:51:40 AM 42.0731 -73.1281 360° North 417 480 26,500 1,100 Climbing Boston Center
Fri 09:52:40 AM 42.1794 -73.1292 360° North 417 480 27,000 250 Climbing Boston Center
Fri 09:53:40 AM 42.3150 -73.1308 359° North 429 494 27,000  Level Boston Center
Fri 09:54:40 AM 42.4358 -73.1294 360° North 434 499 27,000  Level Boston Center
Fri 09:55:40 AM 42.5567 -73.1278 North 434 499 27,000  Level Boston Center
Fri 09:56:40 AM 42.6631 -73.1347 357° North 434 499 27,000  Level Boston Center
Fri 09:57:40 AM 42.7964 -73.1361 360° North 434 499 27,000  Level Boston Center
Fri 09:58:40 AM 42.9067 -73.1375 359° North 434 499 27,000 -400 Level Boston Center
Fri 09:59:40 AM 43.0403 -73.1389 360° North 434 499 26,200 -1,300 Descending Boston Center
Fri 10:00:40 AM 43.1486 -73.1400 360° North 434 499 24,400 -1,650 Descending Boston Center
Fri 10:01:40 AM 43.2819 -73.1417 359° North 440 506 22,900 -1,750 Descending Boston Center
Fri 10:02:40 AM 43.3944 -73.1400 North 440 506 20,900 -2,100 Descending Boston Center
Fri 10:03:40 AM 43.5133 -73.1414 360° North 435 501 18,700 -1,950 Descending Boston Center
Fri 10:04:40 AM 43.6258 -73.1456 358° North 427 491 17,000 -2,050 Descending Boston Center
Fri 10:05:40 AM 43.7467 -73.1469 360° North 400 460 14,600 -2,300 Descending Boston Center
Fri 10:06:40 AM 43.8569 -73.1483 359° North 395 455 12,400 -1,750 Descending Boston Center
Fri 10:07:40 AM 43.9653 -73.1497 359° North 401 461 11,100 -700 Descending Boston Center
Fri 10:08:40 AM 44.0717 -73.1508 360° North 385 443 11,000 -300 Descending Boston Center
Fri 10:09:40 AM 44.1531 -73.1403 North 330 380 10,500 -1,500 Descending Boston Center
Fri 10:10:40 AM 44.2136 -73.1178 15° North 262 302 8,000 -2,400 Descending Boston Center
Fri 10:11:40 AM 44.2742 -73.0836 22° Northeast 236 272 5,700 -1,950 Descending Boston Center
Fri 10:12:40 AM 44.3244 -73.0378 33° Northeast 218 251 4,100 -1,200 Descending Boston Center
Fri 10:13:40 AM 44.3806 -73.0267 North 199 229 3,300 -750 Descending Boston Center
Fri 10:14:40 AM 44.4181 -73.0678 322° Northwest 167 192 2,600 -950 Descending Boston Center
Fri 10:15:40 AM 44.4428 -73.1058 312° West 146 168 1,400 4,200 Descending Boston Center
Fri 10:16:40 AM 44.4675 -73.1497 308° West 129 148 11,000 4,800 Climbing Boston Center
Fri 10:17:40 AM 44.4861 -73.1761 315° West 108 124 11,000  Level Boston Center
Fri 10:18:40 AM 44.5067 -73.2056 314° West 108 124 11,000  Level Boston Center
Fri 10:19:40 AM 44.5272 -73.2350 314° West 108 124 11,000  Level Boston Center
Fri 10:21:00 AM 44.4667 -73.1500 133° Southeast  Level FlightAware Approximate

Login

Don't have an account? Register now (free) for customized features, flight alerts, and more!